Time,TemperatureF,DewpointF,PressureIn,WindDirection,WindDirectionDegrees,WindSpeedMPH,WindSpeedGustMPH,Humidity,HourlyPrecipIn,Conditions,Clouds,dailyrainin,SoftwareType,DateUTC
2013-02-05 00:00:00,43.0,-99.9,-100.00,East,96,1.0,-999.0,-999,-99.99,,,-99.99,,2013-02-05 08:00:00,
2013-02-05 01:00:00,45.0,-99.9,-100.00,SE,129,5.0,-999.0,-999,-99.99,,,-99.99,,2013-02-05 09:00:00,
2013-02-05 02:00:00,45.0,-99.9,-100.00,SE,144,7.0,-999.0,-999,-99.99,,,-99.99,,2013-02-05 10:00:00,
2013-02-05 03:00:00,46.0,-99.9,-100.00,SE,142,7.0,-999.0,-999,-99.99,,,-99.99,,2013-02-05 11:00:00,
2013-02-05 04:00:00,47.0,-99.9,-100.00,SSE,154,8.0,-999.0,-999,-99.99,,,-99.99,,2013-02-05 12:00:00,
2013-02-05 05:00:00,46.0,-99.9,-100.00,SSE,157,8.0,-999.0,-999,-99.99,,,-99.99,,2013-02-05 13:00:00,
2013-02-05 06:00:00,44.0,-99.9,-100.00,SSE,147,7.0,-999.0,-999,-99.99,,,-99.99,,2013-02-05 14:00:00,
2013-02-05 07:00:00,44.0,-99.9,-100.00,SE,146,6.0,-999.0,-999,-99.99,,,-99.99,,2013-02-05 15:00:00,
2013-02-05 08:00:00,44.0,-99.9,-100.00,SSE,149,7.0,-999.0,-999,-99.99,,,-99.99,,2013-02-05 16:00:00,
2013-02-05 08:52:00,44.0,-99.9,-100.00,SSE,149,7.0,-999.0,-999,-99.99,,,-99.99,,2013-02-05 16:52:00,
2013-02-05 09:00:00,44.0,-99.9,-100.00,SE,127,7.0,-999.0,-999,-99.99,,,-99.99,,2013-02-05 17:00:00,
2013-02-05 10:00:00,48.0,-99.9,-100.00,SE,135,8.0,-999.0,-999,-99.99,,,-99.99,,2013-02-05 18:00:00,
2013-02-05 11:00:00,50.0,-99.9,-100.00,SSE,154,10.0,-999.0,-999,-99.99,,,-99.99,,2013-02-05 19:00:00,
2013-02-05 12:00:00,50.0,-99.9,-100.00,SSE,158,13.0,-999.0,-999,-99.99,,,-99.99,,2013-02-05 20:00:00,
2013-02-05 13:00:00,49.0,-99.9,-100.00,SSE,161,12.0,-999.0,-999,-99.99,,,-99.99,,2013-02-05 21:00:00,
2013-02-05 14:00:00,51.0,-99.9,-100.00,South,169,12.0,-999.0,-999,-99.99,,,-99.99,,2013-02-05 22:00:00,
2013-02-05 15:00:00,51.0,-99.9,-100.00,SSE,164,12.0,-999.0,-999,-99.99,,,-99.99,,2013-02-05 23:00:00,
2013-02-05 16:00:00,50.0,-99.9,-100.00,SSE,168,13.0,-999.0,-999,-99.99,,,-99.99,,2013-02-06 00:00:00,
2013-02-05 17:00:00,49.0,-99.9,-100.00,SSE,157,10.0,-999.0,-999,-99.99,,,-99.99,,2013-02-06 01:00:00,
2013-02-05 18:00:00,46.0,-99.9,-100.00,SSE,157,10.0,-999.0,-999,-99.99,,,-99.99,,2013-02-06 02:00:00,
2013-02-05 18:53:00,46.0,-99.9,-100.00,SSE,157,10.0,-999.0,-999,-99.99,,,-99.99,,2013-02-06 02:53:00,
2013-02-05 19:00:00,45.0,-99.9,-100.00,SSE,152,12.0,-999.0,-999,-99.99,,,-99.99,,2013-02-06 03:00:00,
2013-02-05 20:00:00,46.0,-99.9,-100.00,SSE,158,14.0,-999.0,-999,-99.99,,,-99.99,,2013-02-06 04:00:00,
2013-02-05 21:00:00,46.0,-99.9,-100.00,SSE,162,13.0,-999.0,-999,-99.99,,,-99.99,,2013-02-06 05:00:00,
2013-02-05 22:00:00,46.0,-99.9,-100.00,SSE,159,13.0,-999.0,-999,-99.99,,,-99.99,,2013-02-06 06:00:00,
2013-02-05 23:00:00,45.0,-99.9,-100.00,SSE,159,10.0,-999.0,-999,-99.99,,,-99.99,,2013-02-06 07:00:00,